sensor_id;sensor_type;location;lat;lon;timestamp;P1;durP1;ratioP1;P2;durP2;ratioP2
14849;SDS011;7517;48.400;11.770;2023-04-24T00:01:48;0.90;;;0.77;;
14849;SDS011;7517;48.400;11.770;2023-04-24T00:04:15;0.70;;;0.70;;
14849;SDS011;7517;48.400;11.770;2023-04-24T00:06:43;0.70;;;0.70;;
14849;SDS011;7517;48.400;11.770;2023-04-24T00:09:14;0.93;;;0.87;;
14849;SDS011;7517;48.400;11.770;2023-04-24T00:11:41;0.80;;;0.80;;
14849;SDS011;7517;48.400;11.770;2023-04-24T00:14:09;0.60;;;0.60;;
14849;SDS011;7517;48.400;11.770;2023-04-24T00:16:36;0.70;;;0.70;;
14849;SDS011;7517;48.400;11.770;2023-04-24T00:19:04;1.03;;;0.60;;
14849;SDS011;7517;48.400;11.770;2023-04-24T00:21:32;0.97;;;0.70;;
14849;SDS011;7517;48.400;11.770;2023-04-24T00:23:59;0.73;;;0.73;;
14849;SDS011;7517;48.400;11.770;2023-04-24T00:26:26;0.80;;;0.60;;
14849;SDS011;7517;48.400;11.770;2023-04-24T00:28:53;0.60;;;0.60;;
14849;SDS011;7517;48.400;11.770;2023-04-24T00:31:20;0.93;;;0.70;;
14849;SDS011;7517;48.400;11.770;2023-04-24T00:33:47;1.53;;;0.70;;
14849;SDS011;7517;48.400;11.770;2023-04-24T00:36:16;1.03;;;1.00;;
14849;SDS011;7517;48.400;11.770;2023-04-24T00:38:44;1.23;;;0.60;;
14849;SDS011;7517;48.400;11.770;2023-04-24T00:41:12;0.90;;;0.80;;
14849;SDS011;7517;48.400;11.770;2023-04-24T00:43:39;1.97;;;0.57;;
14849;SDS011;7517;48.400;11.770;2023-04-24T00:46:08;0.60;;;0.60;;
14849;SDS011;7517;48.400;11.770;2023-04-24T00:48:37;0.87;;;0.50;;
14849;SDS011;7517;48.400;11.770;2023-04-24T00:51:06;1.90;;;0.60;;
14849;SDS011;7517;48.400;11.770;2023-04-24T00:53:35;0.87;;;0.57;;
14849;SDS011;7517;48.400;11.770;2023-04-24T00:56:02;0.40;;;0.40;;
14849;SDS011;7517;48.400;11.770;2023-04-24T00:58:31;0.80;;;0.50;;
14849;SDS011;7517;48.400;11.770;2023-04-24T01:00:59;0.53;;;0.53;;
14849;SDS011;7517;48.400;11.770;2023-04-24T01:03:28;0.60;;;0.60;;
14849;SDS011;7517;48.400;11.770;2023-04-24T01:05:57;0.60;;;0.60;;
14849;SDS011;7517;48.400;11.770;2023-04-24T01:08:25;0.60;;;0.50;;
14849;SDS011;7517;48.400;11.770;2023-04-24T01:10:56;0.60;;;0.60;;
14849;SDS011;7517;48.400;11.770;2023-04-24T01:13:24;0.53;;;0.53;;
14849;SDS011;7517;48.400;11.770;2023-04-24T01:15:51;0.50;;;0.50;;
14849;SDS011;7517;48.400;11.770;2023-04-24T01:18:18;1.40;;;0.60;;
14849;SDS011;7517;48.400;11.770;2023-04-24T01:20:46;0.50;;;0.50;;
14849;SDS011;7517;48.400;11.770;2023-04-24T01:23:18;0.73;;;0.60;;
14849;SDS011;7517;48.400;11.770;2023-04-24T01:25:46;0.90;;;0.90;;
14849;SDS011;7517;48.400;11.770;2023-04-24T01:28:15;1.37;;;0.50;;
14849;SDS011;7517;48.400;11.770;2023-04-24T01:30:43;0.90;;;0.60;;
14849;SDS011;7517;48.400;11.770;2023-04-24T01:33:11;0.60;;;0.60;;
14849;SDS011;7517;48.400;11.770;2023-04-24T01:35:38;1.53;;;0.70;;
14849;SDS011;7517;48.400;11.770;2023-04-24T01:38:07;0.50;;;0.50;;
14849;SDS011;7517;48.400;11.770;2023-04-24T01:40:37;0.50;;;0.50;;
14849;SDS011;7517;48.400;11.770;2023-04-24T01:43:04;1.23;;;0.70;;
14849;SDS011;7517;48.400;11.770;2023-04-24T01:45:31;1.90;;;0.60;;
14849;SDS011;7517;48.400;11.770;2023-04-24T01:47:59;0.80;;;0.57;;
14849;SDS011;7517;48.400;11.770;2023-04-24T01:50:27;0.40;;;0.40;;
14849;SDS011;7517;48.400;11.770;2023-04-24T01:52:54;0.60;;;0.60;;
14849;SDS011;7517;48.400;11.770;2023-04-24T01:55:21;0.53;;;0.50;;
14849;SDS011;7517;48.400;11.770;2023-04-24T01:57:50;0.30;;;0.30;;
14849;SDS011;7517;48.400;11.770;2023-04-24T02:00:22;0.40;;;0.40;;
14849;SDS011;7517;48.400;11.770;2023-04-24T02:02:49;1.60;;;0.40;;
14849;SDS011;7517;48.400;11.770;2023-04-24T02:05:17;0.67;;;0.50;;
14849;SDS011;7517;48.400;11.770;2023-04-24T02:07:44;0.40;;;0.40;;
14849;SDS011;7517;48.400;11.770;2023-04-24T02:10:11;0.40;;;0.40;;
14849;SDS011;7517;48.400;11.770;2023-04-24T02:12:39;0.50;;;0.50;;
14849;SDS011;7517;48.400;11.770;2023-04-24T02:15:08;0.50;;;0.40;;
14849;SDS011;7517;48.400;11.770;2023-04-24T02:17:37;0.53;;;0.30;;
14849;SDS011;7517;48.400;11.770;2023-04-24T02:20:05;0.43;;;0.43;;
14849;SDS011;7517;48.400;11.770;2023-04-24T02:22:33;0.30;;;0.23;;
14849;SDS011;7517;48.400;11.770;2023-04-24T02:25:01;0.30;;;0.30;;
14849;SDS011;7517;48.400;11.770;2023-04-24T02:27:29;0.70;;;0.70;;
14849;SDS011;7517;48.400;11.770;2023-04-24T02:29:56;0.87;;;0.30;;
14849;SDS011;7517;48.400;11.770;2023-04-24T02:32:25;0.50;;;0.30;;
14849;SDS011;7517;48.400;11.770;2023-04-24T02:34:54;0.40;;;0.40;;
14849;SDS011;7517;48.400;11.770;2023-04-24T02:37:21;1.00;;;0.50;;
14849;SDS011;7517;48.400;11.770;2023-04-24T02:39:48;0.40;;;0.33;;
14849;SDS011;7517;48.400;11.770;2023-04-24T02:42:15;0.30;;;0.30;;
14849;SDS011;7517;48.400;11.770;2023-04-24T02:44:42;0.40;;;0.40;;
14849;SDS011;7517;48.400;11.770;2023-04-24T02:47:09;0.57;;;0.30;;
14849;SDS011;7517;48.400;11.770;2023-04-24T02:49:38;0.20;;;0.20;;
14849;SDS011;7517;48.400;11.770;2023-04-24T02:52:05;0.30;;;0.30;;
14849;SDS011;7517;48.400;11.770;2023-04-24T02:54:32;0.40;;;0.30;;
14849;SDS011;7517;48.400;11.770;2023-04-24T02:57:00;0.47;;;0.40;;
14849;SDS011;7517;48.400;11.770;2023-04-24T02:59:27;0.40;;;0.37;;
14849;SDS011;7517;48.400;11.770;2023-04-24T03:01:54;0.37;;;0.30;;
14849;SDS011;7517;48.400;11.770;2023-04-24T03:04:21;0.13;;;0.13;;
14849;SDS011;7517;48.400;11.770;2023-04-24T03:06:50;0.30;;;0.30;;
14849;SDS011;7517;48.400;11.770;2023-04-24T03:09:19;0.10;;;0.10;;
14849;SDS011;7517;48.400;11.770;2023-04-24T03:11:47;0.17;;;0.17;;
14849;SDS011;7517;48.400;11.770;2023-04-24T03:14:15;0.30;;;0.20;;
14849;SDS011;7517;48.400;11.770;2023-04-24T03:16:42;0.20;;;0.20;;
14849;SDS011;7517;48.400;11.770;2023-04-24T03:19:09;0.20;;;0.20;;
14849;SDS011;7517;48.400;11.770;2023-04-24T03:21:37;1.10;;;0.50;;
14849;SDS011;7517;48.400;11.770;2023-04-24T03:24:07;0.30;;;0.30;;
14849;SDS011;7517;48.400;11.770;2023-04-24T03:26:34;0.43;;;0.30;;
14849;SDS011;7517;48.400;11.770;2023-04-24T03:29:02;0.20;;;0.20;;
14849;SDS011;7517;48.400;11.770;2023-04-24T03:31:29;0.37;;;0.30;;
14849;SDS011;7517;48.400;11.770;2023-04-24T03:33:56;0.33;;;0.30;;
14849;SDS011;7517;48.400;11.770;2023-04-24T03:36:25;0.20;;;0.20;;
14849;SDS011;7517;48.400;11.770;2023-04-24T03:38:52;0.30;;;0.30;;
14849;SDS011;7517;48.400;11.770;2023-04-24T03:41:21;0.20;;;0.20;;
14849;SDS011;7517;48.400;11.770;2023-04-24T03:43:48;0.30;;;0.30;;
14849;SDS011;7517;48.400;11.770;2023-04-24T03:46:16;2.50;;;0.30;;
14849;SDS011;7517;48.400;11.770;2023-04-24T03:48:43;0.30;;;0.27;;
14849;SDS011;7517;48.400;11.770;2023-04-24T03:51:10;0.20;;;0.20;;
14849;SDS011;7517;48.400;11.770;2023-04-24T03:53:37;0.20;;;0.20;;
14849;SDS011;7517;48.400;11.770;2023-04-24T03:56:04;0.50;;;0.30;;
14849;SDS011;7517;48.400;11.770;2023-04-24T03:58:33;0.30;;;0.30;;
14849;SDS011;7517;48.400;11.770;2023-04-24T04:01:01;0.30;;;0.30;;
14849;SDS011;7517;48.400;11.770;2023-04-24T04:03:28;0.50;;;0.33;;
14849;SDS011;7517;48.400;11.770;2023-04-24T04:05:55;0.47;;;0.47;;
14849;SDS011;7517;48.400;11.770;2023-04-24T04:08:22;0.63;;;0.63;;
14849;SDS011;7517;48.400;11.770;2023-04-24T04:10:49;0.50;;;0.50;;
14849;SDS011;7517;48.400;11.770;2023-04-24T04:13:16;0.33;;;0.33;;
14849;SDS011;7517;48.400;11.770;2023-04-24T04:15:45;0.30;;;0.30;;
14849;SDS011;7517;48.400;11.770;2023-04-24T04:18:12;0.70;;;0.40;;
14849;SDS011;7517;48.400;11.770;2023-04-24T04:20:40;0.50;;;0.50;;
14849;SDS011;7517;48.400;11.770;2023-04-24T04:23:07;2.60;;;0.37;;
14849;SDS011;7517;48.400;11.770;2023-04-24T04:25:34;0.47;;;0.37;;
14849;SDS011;7517;48.400;11.770;2023-04-24T04:28:01;0.20;;;0.20;;
14849;SDS011;7517;48.400;11.770;2023-04-24T04:30:29;0.33;;;0.33;;
14849;SDS011;7517;48.400;11.770;2023-04-24T04:32:58;0.67;;;0.40;;
14849;SDS011;7517;48.400;11.770;2023-04-24T04:35:26;0.83;;;0.37;;
14849;SDS011;7517;48.400;11.770;2023-04-24T04:37:53;0.53;;;0.50;;
14849;SDS011;7517;48.400;11.770;2023-04-24T04:40:21;0.60;;;0.50;;
14849;SDS011;7517;48.400;11.770;2023-04-24T04:42:48;0.40;;;0.40;;
14849;SDS011;7517;48.400;11.770;2023-04-24T04:45:18;0.43;;;0.43;;
14849;SDS011;7517;48.400;11.770;2023-04-24T04:47:46;0.60;;;0.60;;
14849;SDS011;7517;48.400;11.770;2023-04-24T04:50:15;1.10;;;0.97;;
14849;SDS011;7517;48.400;11.770;2023-04-24T04:52:44;0.67;;;0.60;;
14849;SDS011;7517;48.400;11.770;2023-04-24T04:55:11;0.50;;;0.50;;
14849;SDS011;7517;48.400;11.770;2023-04-24T04:57:41;1.00;;;0.80;;
14849;SDS011;7517;48.400;11.770;2023-04-24T05:00:09;0.40;;;0.40;;
14849;SDS011;7517;48.400;11.770;2023-04-24T05:02:43;1.10;;;0.60;;
14849;SDS011;7517;48.400;11.770;2023-04-24T05:05:10;0.50;;;0.43;;
14849;SDS011;7517;48.400;11.770;2023-04-24T05:07:39;0.37;;;0.37;;
14849;SDS011;7517;48.400;11.770;2023-04-24T05:10:07;1.10;;;0.50;;
14849;SDS011;7517;48.400;11.770;2023-04-24T05:12:35;0.47;;;0.30;;
14849;SDS011;7517;48.400;11.770;2023-04-24T05:15:03;0.43;;;0.43;;
14849;SDS011;7517;48.400;11.770;2023-04-24T05:17:31;1.23;;;0.40;;
14849;SDS011;7517;48.400;11.770;2023-04-24T05:19:59;0.50;;;0.50;;
14849;SDS011;7517;48.400;11.770;2023-04-24T05:22:26;0.63;;;0.60;;
14849;SDS011;7517;48.400;11.770;2023-04-24T05:24:55;0.33;;;0.33;;
14849;SDS011;7517;48.400;11.770;2023-04-24T05:27:22;0.47;;;0.40;;
14849;SDS011;7517;48.400;11.770;2023-04-24T05:29:50;0.80;;;0.60;;
14849;SDS011;7517;48.400;11.770;2023-04-24T05:32:17;0.50;;;0.50;;
14849;SDS011;7517;48.400;11.770;2023-04-24T05:34:45;0.63;;;0.60;;
14849;SDS011;7517;48.400;11.770;2023-04-24T05:37:12;0.50;;;0.37;;
14849;SDS011;7517;48.400;11.770;2023-04-24T05:39:39;0.57;;;0.50;;
14849;SDS011;7517;48.400;11.770;2023-04-24T05:42:08;0.97;;;0.37;;
14849;SDS011;7517;48.400;11.770;2023-04-24T05:44:35;0.60;;;0.60;;
14849;SDS011;7517;48.400;11.770;2023-04-24T05:47:03;1.10;;;0.50;;
14849;SDS011;7517;48.400;11.770;2023-04-24T05:49:30;0.80;;;0.50;;
14849;SDS011;7517;48.400;11.770;2023-04-24T05:51:57;0.60;;;0.50;;
14849;SDS011;7517;48.400;11.770;2023-04-24T05:54:26;0.43;;;0.43;;
14849;SDS011;7517;48.400;11.770;2023-04-24T05:56:53;1.40;;;0.70;;
14849;SDS011;7517;48.400;11.770;2023-04-24T05:59:22;0.50;;;0.40;;
14849;SDS011;7517;48.400;11.770;2023-04-24T06:01:49;0.33;;;0.33;;
14849;SDS011;7517;48.400;11.770;2023-04-24T06:04:16;0.63;;;0.63;;
14849;SDS011;7517;48.400;11.770;2023-04-24T06:06:44;0.70;;;0.70;;
14849;SDS011;7517;48.400;11.770;2023-04-24T06:09:11;0.40;;;0.40;;
14849;SDS011;7517;48.400;11.770;2023-04-24T06:11:39;0.30;;;0.30;;
14849;SDS011;7517;48.400;11.770;2023-04-24T06:14:07;0.30;;;0.30;;
14849;SDS011;7517;48.400;11.770;2023-04-24T06:16:36;0.50;;;0.40;;
14849;SDS011;7517;48.400;11.770;2023-04-24T06:19:04;0.30;;;0.30;;
14849;SDS011;7517;48.400;11.770;2023-04-24T06:21:31;0.40;;;0.30;;
14849;SDS011;7517;48.400;11.770;2023-04-24T06:23:58;0.70;;;0.40;;
14849;SDS011;7517;48.400;11.770;2023-04-24T06:26:26;0.20;;;0.20;;
14849;SDS011;7517;48.400;11.770;2023-04-24T06:28:53;0.30;;;0.30;;
14849;SDS011;7517;48.400;11.770;2023-04-24T06:31:20;0.40;;;0.40;;
14849;SDS011;7517;48.400;11.770;2023-04-24T06:33:50;0.37;;;0.37;;
14849;SDS011;7517;48.400;11.770;2023-04-24T06:36:17;1.17;;;0.30;;
14849;SDS011;7517;48.400;11.770;2023-04-24T06:38:44;0.30;;;0.27;;
14849;SDS011;7517;48.400;11.770;2023-04-24T06:41:11;0.33;;;0.33;;
14849;SDS011;7517;48.400;11.770;2023-04-24T06:43:38;0.43;;;0.43;;
14849;SDS011;7517;48.400;11.770;2023-04-24T06:46:06;0.30;;;0.30;;
14849;SDS011;7517;48.400;11.770;2023-04-24T06:48:33;0.77;;;0.60;;
14849;SDS011;7517;48.400;11.770;2023-04-24T06:51:04;0.87;;;0.40;;
14849;SDS011;7517;48.400;11.770;2023-04-24T06:53:32;0.40;;;0.40;;
14849;SDS011;7517;48.400;11.770;2023-04-24T06:56:00;0.80;;;0.30;;
14849;SDS011;7517;48.400;11.770;2023-04-24T06:58:27;0.30;;;0.30;;
14849;SDS011;7517;48.400;11.770;2023-04-24T07:00:56;0.37;;;0.27;;
14849;SDS011;7517;48.400;11.770;2023-04-24T07:03:23;0.30;;;0.30;;
14849;SDS011;7517;48.400;11.770;2023-04-24T07:05:50;1.17;;;0.20;;
14849;SDS011;7517;48.400;11.770;2023-04-24T07:08:23;0.30;;;0.30;;
14849;SDS011;7517;48.400;11.770;2023-04-24T07:10:50;0.30;;;0.30;;
14849;SDS011;7517;48.400;11.770;2023-04-24T07:13:18;0.40;;;0.40;;
14849;SDS011;7517;48.400;11.770;2023-04-24T07:15:45;0.37;;;0.30;;
14849;SDS011;7517;48.400;11.770;2023-04-24T07:18:14;0.20;;;0.20;;
14849;SDS011;7517;48.400;11.770;2023-04-24T07:20:41;0.40;;;0.40;;
14849;SDS011;7517;48.400;11.770;2023-04-24T07:23:08;0.30;;;0.30;;
14849;SDS011;7517;48.400;11.770;2023-04-24T07:25:37;0.77;;;0.40;;
14849;SDS011;7517;48.400;11.770;2023-04-24T07:28:05;0.20;;;0.20;;
14849;SDS011;7517;48.400;11.770;2023-04-24T07:30:32;0.27;;;0.13;;
14849;SDS011;7517;48.400;11.770;2023-04-24T07:32:59;0.73;;;0.40;;
14849;SDS011;7517;48.400;11.770;2023-04-24T07:35:27;0.20;;;0.20;;
14849;SDS011;7517;48.400;11.770;2023-04-24T07:37:54;0.20;;;0.20;;
14849;SDS011;7517;48.400;11.770;2023-04-24T07:40:22;0.83;;;0.30;;
14849;SDS011;7517;48.400;11.770;2023-04-24T07:42:50;0.33;;;0.30;;
14849;SDS011;7517;48.400;11.770;2023-04-24T07:45:18;0.30;;;0.30;;
14849;SDS011;7517;48.400;11.770;2023-04-24T07:47:48;0.10;;;0.10;;
14849;SDS011;7517;48.400;11.770;2023-04-24T07:50:17;0.40;;;0.20;;
14849;SDS011;7517;48.400;11.770;2023-04-24T07:52:44;0.10;;;0.10;;
14849;SDS011;7517;48.400;11.770;2023-04-24T07:55:12;0.23;;;0.23;;
14849;SDS011;7517;48.400;11.770;2023-04-24T07:57:39;0.50;;;0.20;;
14849;SDS011;7517;48.400;11.770;2023-04-24T08:00:09;0.70;;;0.20;;
14849;SDS011;7517;48.400;11.770;2023-04-24T08:02:38;0.83;;;0.20;;
14849;SDS011;7517;48.400;11.770;2023-04-24T08:05:05;0.30;;;0.30;;
14849;SDS011;7517;48.400;11.770;2023-04-24T08:07:33;0.10;;;0.10;;
14849;SDS011;7517;48.400;11.770;2023-04-24T08:10:01;0.13;;;0.10;;
14849;SDS011;7517;48.400;11.770;2023-04-24T08:12:29;0.10;;;0.10;;
14849;SDS011;7517;48.400;11.770;2023-04-24T08:14:56;0.20;;;0.20;;
14849;SDS011;7517;48.400;11.770;2023-04-24T08:17:25;0.13;;;0.13;;
14849;SDS011;7517;48.400;11.770;2023-04-24T08:19:52;0.87;;;0.10;;
14849;SDS011;7517;48.400;11.770;2023-04-24T08:22:26;0.10;;;0.10;;
14849;SDS011;7517;48.400;11.770;2023-04-24T08:24:53;0.10;;;0.10;;
14849;SDS011;7517;48.400;11.770;2023-04-24T08:27:22;0.30;;;0.10;;
14849;SDS011;7517;48.400;11.770;2023-04-24T08:29:50;0.20;;;0.20;;
14849;SDS011;7517;48.400;11.770;2023-04-24T08:32:17;0.20;;;0.10;;
14849;SDS011;7517;48.400;11.770;2023-04-24T08:34:45;0.10;;;0.10;;
14849;SDS011;7517;48.400;11.770;2023-04-24T08:37:12;0.20;;;0.20;;
14849;SDS011;7517;48.400;11.770;2023-04-24T08:39:40;0.10;;;0.10;;
14849;SDS011;7517;48.400;11.770;2023-04-24T08:42:07;0.30;;;0.20;;
14849;SDS011;7517;48.400;11.770;2023-04-24T08:44:37;0.10;;;0.10;;
14849;SDS011;7517;48.400;11.770;2023-04-24T08:47:05;0.17;;;0.17;;
14849;SDS011;7517;48.400;11.770;2023-04-24T08:49:34;0.53;;;0.30;;
14849;SDS011;7517;48.400;11.770;2023-04-24T08:52:05;0.30;;;0.30;;
14849;SDS011;7517;48.400;11.770;2023-04-24T08:54:33;1.17;;;0.30;;
14849;SDS011;7517;48.400;11.770;2023-04-24T08:57:01;1.37;;;0.37;;
14849;SDS011;7517;48.400;11.770;2023-04-24T08:59:30;0.33;;;0.33;;
14849;SDS011;7517;48.400;11.770;2023-04-24T09:01:57;0.30;;;0.30;;
14849;SDS011;7517;48.400;11.770;2023-04-24T09:04:26;0.40;;;0.40;;
14849;SDS011;7517;48.400;11.770;2023-04-24T09:06:56;1.40;;;0.30;;
14849;SDS011;7517;48.400;11.770;2023-04-24T09:09:26;0.40;;;0.30;;
14849;SDS011;7517;48.400;11.770;2023-04-24T09:11:59;1.23;;;0.50;;
14849;SDS011;7517;48.400;11.770;2023-04-24T09:14:28;0.73;;;0.33;;
14849;SDS011;7517;48.400;11.770;2023-04-24T09:16:57;1.33;;;0.63;;
14849;SDS011;7517;48.400;11.770;2023-04-24T09:19:24;1.40;;;0.73;;
14849;SDS011;7517;48.400;11.770;2023-04-24T09:21:52;1.03;;;0.60;;
14849;SDS011;7517;48.400;11.770;2023-04-24T09:24:20;0.60;;;0.60;;
14849;SDS011;7517;48.400;11.770;2023-04-24T09:26:55;0.87;;;0.40;;
14849;SDS011;7517;48.400;11.770;2023-04-24T09:29:24;0.70;;;0.50;;
14849;SDS011;7517;48.400;11.770;2023-04-24T09:31:51;0.63;;;0.60;;
14849;SDS011;7517;48.400;11.770;2023-04-24T09:34:20;0.57;;;0.50;;
14849;SDS011;7517;48.400;11.770;2023-04-24T09:36:50;0.50;;;0.50;;
14849;SDS011;7517;48.400;11.770;2023-04-24T09:39:18;0.70;;;0.50;;
14849;SDS011;7517;48.400;11.770;2023-04-24T09:41:46;0.30;;;0.30;;
14849;SDS011;7517;48.400;11.770;2023-04-24T09:44:16;0.40;;;0.40;;
14849;SDS011;7517;48.400;11.770;2023-04-24T09:46:50;0.43;;;0.43;;
14849;SDS011;7517;48.400;11.770;2023-04-24T09:49:21;0.40;;;0.40;;
14849;SDS011;7517;48.400;11.770;2023-04-24T09:51:51;0.50;;;0.50;;
14849;SDS011;7517;48.400;11.770;2023-04-24T09:54:28;0.47;;;0.47;;
14849;SDS011;7517;48.400;11.770;2023-04-24T09:56:55;0.70;;;0.43;;
14849;SDS011;7517;48.400;11.770;2023-04-24T09:59:26;0.40;;;0.40;;
14849;SDS011;7517;48.400;11.770;2023-04-24T10:01:53;0.60;;;0.30;;
14849;SDS011;7517;48.400;11.770;2023-04-24T10:04:23;0.40;;;0.40;;
14849;SDS011;7517;48.400;11.770;2023-04-24T10:06:53;0.30;;;0.30;;
14849;SDS011;7517;48.400;11.770;2023-04-24T10:09:23;0.20;;;0.20;;
14849;SDS011;7517;48.400;11.770;2023-04-24T10:11:53;0.37;;;0.37;;
14849;SDS011;7517;48.400;11.770;2023-04-24T10:14:21;0.30;;;0.30;;
14849;SDS011;7517;48.400;11.770;2023-04-24T10:16:54;0.40;;;0.40;;
14849;SDS011;7517;48.400;11.770;2023-04-24T10:19:24;0.77;;;0.57;;
14849;SDS011;7517;48.400;11.770;2023-04-24T10:21:52;0.50;;;0.50;;
14849;SDS011;7517;48.400;11.770;2023-04-24T10:24:22;0.60;;;0.57;;
14849;SDS011;7517;48.400;11.770;2023-04-24T10:26:50;0.50;;;0.50;;
14849;SDS011;7517;48.400;11.770;2023-04-24T10:29:18;0.53;;;0.53;;
14849;SDS011;7517;48.400;11.770;2023-04-24T10:31:47;0.30;;;0.30;;
14849;SDS011;7517;48.400;11.770;2023-04-24T10:34:16;0.43;;;0.43;;
14849;SDS011;7517;48.400;11.770;2023-04-24T10:36:48;1.27;;;0.50;;
14849;SDS011;7517;48.400;11.770;2023-04-24T10:39:19;0.47;;;0.47;;
14849;SDS011;7517;48.400;11.770;2023-04-24T10:41:48;0.47;;;0.43;;
14849;SDS011;7517;48.400;11.770;2023-04-24T10:44:16;0.50;;;0.50;;
14849;SDS011;7517;48.400;11.770;2023-04-24T10:46:45;0.40;;;0.40;;
14849;SDS011;7517;48.400;11.770;2023-04-24T10:49:27;0.50;;;0.50;;
14849;SDS011;7517;48.400;11.770;2023-04-24T10:51:59;0.60;;;0.60;;
14849;SDS011;7517;48.400;11.770;2023-04-24T10:54:33;0.93;;;0.70;;
14849;SDS011;7517;48.400;11.770;2023-04-24T11:02:57;0.57;;;0.57;;
14849;SDS011;7517;48.400;11.770;2023-04-24T11:08:31;0.50;;;0.50;;
14849;SDS011;7517;48.400;11.770;2023-04-24T11:11:08;1.53;;;0.87;;
14849;SDS011;7517;48.400;11.770;2023-04-24T11:16:35;0.63;;;0.60;;
14849;SDS011;7517;48.400;11.770;2023-04-24T11:19:09;0.63;;;0.50;;
14849;SDS011;7517;48.400;11.770;2023-04-24T11:21:47;0.50;;;0.50;;
14849;SDS011;7517;48.400;11.770;2023-04-24T11:24:29;0.47;;;0.40;;
14849;SDS011;7517;48.400;11.770;2023-04-24T11:27:06;0.47;;;0.30;;
14849;SDS011;7517;48.400;11.770;2023-04-24T11:29:43;0.47;;;0.30;;
14849;SDS011;7517;48.400;11.770;2023-04-24T11:32:16;1.57;;;0.60;;
14849;SDS011;7517;48.400;11.770;2023-04-24T11:34:52;0.40;;;0.40;;
14849;SDS011;7517;48.400;11.770;2023-04-24T11:37:23;0.63;;;0.40;;
14849;SDS011;7517;48.400;11.770;2023-04-24T11:39:53;0.60;;;0.57;;
14849;SDS011;7517;48.400;11.770;2023-04-24T11:42:22;1.03;;;0.70;;
14849;SDS011;7517;48.400;11.770;2023-04-24T11:44:51;0.50;;;0.50;;
14849;SDS011;7517;48.400;11.770;2023-04-24T11:47:20;0.63;;;0.50;;
14849;SDS011;7517;48.400;11.770;2023-04-24T11:49:56;0.50;;;0.50;;
14849;SDS011;7517;48.400;11.770;2023-04-24T11:52:26;0.53;;;0.53;;
14849;SDS011;7517;48.400;11.770;2023-04-24T11:54:56;0.30;;;0.30;;
14849;SDS011;7517;48.400;11.770;2023-04-24T11:57:24;0.67;;;0.43;;
14849;SDS011;7517;48.400;11.770;2023-04-24T11:59:54;0.40;;;0.40;;
14849;SDS011;7517;48.400;11.770;2023-04-24T12:02:21;0.47;;;0.47;;
14849;SDS011;7517;48.400;11.770;2023-04-24T12:04:50;0.40;;;0.40;;
14849;SDS011;7517;48.400;11.770;2023-04-24T12:07:18;0.50;;;0.50;;
14849;SDS011;7517;48.400;11.770;2023-04-24T12:09:50;0.40;;;0.40;;
14849;SDS011;7517;48.400;11.770;2023-04-24T12:12:25;0.70;;;0.70;;
14849;SDS011;7517;48.400;11.770;2023-04-24T12:14:53;0.67;;;0.67;;
14849;SDS011;7517;48.400;11.770;2023-04-24T12:17:27;0.60;;;0.60;;
14849;SDS011;7517;48.400;11.770;2023-04-24T12:19:57;0.50;;;0.50;;
14849;SDS011;7517;48.400;11.770;2023-04-24T12:22:27;0.80;;;0.60;;
14849;SDS011;7517;48.400;11.770;2023-04-24T12:25:10;1.07;;;0.50;;
14849;SDS011;7517;48.400;11.770;2023-04-24T12:27:38;0.90;;;0.60;;
14849;SDS011;7517;48.400;11.770;2023-04-24T12:30:09;0.80;;;0.80;;
14849;SDS011;7517;48.400;11.770;2023-04-24T12:32:45;0.57;;;0.57;;
14849;SDS011;7517;48.400;11.770;2023-04-24T12:35:14;0.77;;;0.77;;
14849;SDS011;7517;48.400;11.770;2023-04-24T12:37:46;0.70;;;0.70;;
14849;SDS011;7517;48.400;11.770;2023-04-24T12:40:16;0.77;;;0.63;;
14849;SDS011;7517;48.400;11.770;2023-04-24T12:42:45;1.00;;;0.60;;
14849;SDS011;7517;48.400;11.770;2023-04-24T12:45:15;0.60;;;0.60;;
14849;SDS011;7517;48.400;11.770;2023-04-24T12:47:44;0.47;;;0.47;;
14849;SDS011;7517;48.400;11.770;2023-04-24T12:50:13;0.60;;;0.60;;
14849;SDS011;7517;48.400;11.770;2023-04-24T12:52:41;0.70;;;0.50;;
14849;SDS011;7517;48.400;11.770;2023-04-24T12:55:09;0.60;;;0.60;;
14849;SDS011;7517;48.400;11.770;2023-04-24T12:57:39;1.53;;;0.40;;
14849;SDS011;7517;48.400;11.770;2023-04-24T13:00:07;0.50;;;0.43;;
14849;SDS011;7517;48.400;11.770;2023-04-24T13:02:48;0.47;;;0.47;;
14849;SDS011;7517;48.400;11.770;2023-04-24T13:05:16;2.13;;;0.60;;
14849;SDS011;7517;48.400;11.770;2023-04-24T13:07:44;0.50;;;0.50;;
14849;SDS011;7517;48.400;11.770;2023-04-24T13:10:11;0.50;;;0.50;;
14849;SDS011;7517;48.400;11.770;2023-04-24T13:12:40;0.50;;;0.50;;
14849;SDS011;7517;48.400;11.770;2023-04-24T13:15:10;0.50;;;0.50;;
14849;SDS011;7517;48.400;11.770;2023-04-24T13:17:38;1.43;;;0.50;;
14849;SDS011;7517;48.400;11.770;2023-04-24T13:20:05;1.17;;;0.63;;
14849;SDS011;7517;48.400;11.770;2023-04-24T13:22:33;0.77;;;0.40;;
14849;SDS011;7517;48.400;11.770;2023-04-24T13:25:02;0.50;;;0.50;;
14849;SDS011;7517;48.400;11.770;2023-04-24T13:27:31;0.33;;;0.33;;
14849;SDS011;7517;48.400;11.770;2023-04-24T13:29:59;0.97;;;0.40;;
14849;SDS011;7517;48.400;11.770;2023-04-24T13:32:28;0.30;;;0.30;;
14849;SDS011;7517;48.400;11.770;2023-04-24T13:34:56;0.40;;;0.40;;
14849;SDS011;7517;48.400;11.770;2023-04-24T13:37:23;1.47;;;0.43;;
14849;SDS011;7517;48.400;11.770;2023-04-24T13:39:51;0.37;;;0.37;;
14849;SDS011;7517;48.400;11.770;2023-04-24T13:42:18;0.40;;;0.30;;
14849;SDS011;7517;48.400;11.770;2023-04-24T13:44:46;0.50;;;0.40;;
14849;SDS011;7517;48.400;11.770;2023-04-24T13:47:15;0.30;;;0.30;;
14849;SDS011;7517;48.400;11.770;2023-04-24T13:49:42;0.30;;;0.27;;
14849;SDS011;7517;48.400;11.770;2023-04-24T13:52:10;0.67;;;0.30;;
14849;SDS011;7517;48.400;11.770;2023-04-24T13:54:37;0.40;;;0.40;;
14849;SDS011;7517;48.400;11.770;2023-04-24T13:57:04;0.40;;;0.40;;
14849;SDS011;7517;48.400;11.770;2023-04-24T13:59:31;0.60;;;0.50;;
14849;SDS011;7517;48.400;11.770;2023-04-24T14:01:59;0.93;;;0.40;;
14849;SDS011;7517;48.400;11.770;2023-04-24T14:04:27;2.17;;;0.50;;
14849;SDS011;7517;48.400;11.770;2023-04-24T14:06:55;0.40;;;0.40;;
14849;SDS011;7517;48.400;11.770;2023-04-24T14:09:22;0.50;;;0.50;;
14849;SDS011;7517;48.400;11.770;2023-04-24T14:11:49;0.40;;;0.40;;
14849;SDS011;7517;48.400;11.770;2023-04-24T14:14:17;0.80;;;0.60;;
14849;SDS011;7517;48.400;11.770;2023-04-24T14:16:44;0.67;;;0.67;;
14849;SDS011;7517;48.400;11.770;2023-04-24T14:19:12;1.57;;;1.30;;
14849;SDS011;7517;48.400;11.770;2023-04-24T14:21:40;1.50;;;0.90;;
14849;SDS011;7517;48.400;11.770;2023-04-24T14:24:07;0.83;;;0.83;;
14849;SDS011;7517;48.400;11.770;2023-04-24T14:26:35;2.10;;;0.60;;
14849;SDS011;7517;48.400;11.770;2023-04-24T14:29:02;0.60;;;0.60;;
14849;SDS011;7517;48.400;11.770;2023-04-24T14:31:30;1.07;;;0.30;;
14849;SDS011;7517;48.400;11.770;2023-04-24T14:33:57;0.40;;;0.40;;
14849;SDS011;7517;48.400;11.770;2023-04-24T14:36:24;0.50;;;0.50;;
14849;SDS011;7517;48.400;11.770;2023-04-24T14:38:53;1.07;;;0.50;;
14849;SDS011;7517;48.400;11.770;2023-04-24T14:41:20;0.57;;;0.57;;
14849;SDS011;7517;48.400;11.770;2023-04-24T14:43:47;0.40;;;0.40;;
14849;SDS011;7517;48.400;11.770;2023-04-24T14:46:14;0.50;;;0.40;;
14849;SDS011;7517;48.400;11.770;2023-04-24T14:48:42;1.50;;;0.40;;
14849;SDS011;7517;48.400;11.770;2023-04-24T14:51:09;1.07;;;0.50;;
14849;SDS011;7517;48.400;11.770;2023-04-24T14:53:36;0.37;;;0.33;;
14849;SDS011;7517;48.400;11.770;2023-04-24T14:56:06;1.40;;;0.50;;
14849;SDS011;7517;48.400;11.770;2023-04-24T14:58:33;1.63;;;0.43;;
14849;SDS011;7517;48.400;11.770;2023-04-24T15:01:01;0.60;;;0.50;;
14849;SDS011;7517;48.400;11.770;2023-04-24T15:03:28;0.43;;;0.43;;
14849;SDS011;7517;48.400;11.770;2023-04-24T15:05:56;1.33;;;0.47;;
14849;SDS011;7517;48.400;11.770;2023-04-24T15:08:23;0.33;;;0.33;;